Tropical Cyclones
[Index]
Main Index Home Page Stock Weather Photos Extreme Storms Discussion Storm News and Storm Chasing Reports Tropical Cyclones / Hurricanes / Typhoons Weather Data and Links Wild Fires / Bushfires Weather Observation Techniques Weather Picture Catalogue Tornado Pictures and Reports Stock Video Footage and DVDs for sale
Season 1996-1997 Tropical Cyclone JOSIE Track Map
Season 1996-1997 Summaries: [BoM-AU] [JTWC-AU] [JTWC-SIO] [JTWC-SPAC] [JTWC-SH]
<<- Previous TC | JTWC 1996-1997 Season | Next TC ->>

click for intensity scale information  Lat/long Grid: Show Hide

 Date Labels: Show Hide

Joint Typhoon Warning Centre Cyclone Data

Name: JOSIE

01 Feb 1997 00:00 UTC to 17 Feb 1997 06:00 UTC

    date/time    lat    long     hPa   cat  kts
1997-02-01 00   16.8    55.0                  15          
1997-02-01 06   16.8    54.7                  15          
1997-02-01 12   16.7    54.4                  15          
1997-02-01 18   16.5    54.2                  15          
1997-02-02 00   16.3    54.0                  20          
1997-02-02 06   16.0    53.8                  20          
1997-02-02 12   15.7    53.6                  20          
1997-02-02 18   15.4    53.3                  20          
1997-02-03 00   15.1    53.0                  20          
1997-02-03 06   14.9    52.8                  20          
1997-02-03 12   14.8    52.6                  20          
1997-02-03 18   14.7    52.4                  20          
1997-02-04 00   14.5    52.3                  25          
1997-02-04 06   14.3    52.2                  25          
1997-02-04 12   14.1    52.2                  25          
1997-02-04 18   13.9    52.3                  25          
1997-02-05 00   13.7    52.4                  25          
1997-02-05 06   13.5    52.5                  25          
1997-02-05 12   13.4    52.7                  25          
1997-02-05 18   13.3    52.9                  30          
1997-02-06 00   13.2    53.2                  30          
1997-02-06 06   13.1    53.5                  25          
1997-02-06 12   13.1    53.8                  25          
1997-02-06 18   13.2    54.1                  25          
1997-02-07 00   13.4    54.3                  25          
1997-02-07 06   13.6    54.5                  25          
1997-02-07 12   13.9    54.6                  30          
1997-02-07 18   14.2    54.6                  30          
1997-02-08 00   14.5    54.4                  30          
1997-02-08 06   14.8    53.8                  30          
1997-02-08 12   14.7    52.9                  30          
1997-02-08 18   14.2    51.9                  35          
1997-02-09 00   13.7    50.8            1     45          
1997-02-09 06   13.2    49.6            1     50          
1997-02-09 12   13.5    48.3            1     45          
1997-02-09 18   14.1    47.0            1     45          
1997-02-10 00   14.9    45.8            1     45          
1997-02-10 06   15.8    44.8            1     45          
1997-02-10 12   16.5    44.0            1     45          
1997-02-10 18   17.2    43.4            1     45          
1997-02-11 00   17.4    42.8            1     45          
1997-02-11 06   17.5    42.3            1     45          
1997-02-11 12   17.8    41.8            1     45          
1997-02-11 18   18.3    41.5            1     45          
1997-02-12 00   18.8    41.2            1     45          
1997-02-12 06   19.3    40.9            1     45          
1997-02-12 12   19.7    40.7            1     50          
1997-02-12 18   20.2    40.7            2     60          
1997-02-13 00   20.7    40.6            2     70          
1997-02-13 06   21.5    40.3            3     80          
1997-02-13 12   22.4    40.1            3     90          
1997-02-13 18   23.5    40.2            3     90          
1997-02-14 00   24.5    40.2            3     90          
1997-02-14 06   25.5    40.2            3     90          
1997-02-14 12   26.3    40.4            3     90          
1997-02-14 18   27.0    40.9            3     85          
1997-02-15 00   27.6    41.5            3     80          
1997-02-15 06   28.4    42.0            3     75          
1997-02-15 12   29.2    42.4            2     70          
1997-02-15 18   30.1    42.5            2     65          
1997-02-16 00   31.5    42.5            2     60          
1997-02-16 06   32.8    42.2            2     55          
1997-02-16 12   34.1    42.1            2     55          
1997-02-16 18   35.4    42.5            1     50          
1997-02-17 00   36.6    43.3            1     45          
1997-02-17 06   38.0    44.6            1     45          
Winds are 1-min average.

Tropical cyclone tracks developed by Michael Bath using data from the Joint Typhoon Warning Centre Best Tracks and Google Maps.


[Australian Severe Weather index] [Copyright Notice] [Email Contacts] [Search This Site] [Privacy Policy]
Document: tropical_cyclone_josie.htm Updated: 18 September 2016